Time;durP1;ratioP1;P1;durP2;ratioP2;P2;SDS_P1;SDS_P2;PMS_P1;PMS_P2;Temp;Humidity;BMP_temperature;BMP_pressure;BME280_temperature;BME280_humidity;BME280_pressure;Samples;Min_cycle;Max_cycle;Signal;HPM_P1;HPM_P2
2023/06/28 00:00:25;;;;;;;7.13;3.45;;;13.90;86.90;;;;;;5054784;28;20120;-46
2023/06/28 00:02:52;;;;;;;11.23;3.72;;;13.80;87.00;;;;;;5054867;28;20040;-47
2023/06/28 00:05:21;;;;;;;4.75;2.55;;;13.80;87.10;;;;;;5054559;28;20107;-49
2023/06/28 00:07:48;;;;;;;6.63;3.47;;;13.90;87.10;;;;;;5055040;28;20087;-47
2023/06/28 00:10:14;;;;;;;11.02;3.97;;;13.80;87.10;;;;;;5054749;28;20051;-49
2023/06/28 00:12:42;;;;;;;8.98;3.45;;;13.80;87.20;;;;;;5044808;28;20462;-48
2023/06/28 00:15:10;;;;;;;8.90;3.47;;;13.80;87.20;;;;;;5034722;28;20410;-47
2023/06/28 00:17:38;;;;;;;8.60;3.70;;;13.70;87.30;;;;;;5034684;28;20088;-46
2023/06/28 00:20:07;;;;;;;7.43;3.10;;;13.70;87.40;;;;;;5034538;28;20129;-51
2023/06/28 00:22:36;;;;;;;7.78;3.17;;;13.70;87.50;;;;;;5034357;28;20352;-47
2023/06/28 00:25:13;;;;;;;6.43;3.75;;;13.70;87.50;;;;;;5034362;28;20396;-48
2023/06/28 00:27:40;;;;;;;7.10;3.50;;;13.70;87.80;;;;;;5033542;28;20026;-46
2023/06/28 00:30:08;;;;;;;8.35;3.80;;;13.60;87.80;;;;;;5034314;28;20022;-46
2023/06/28 00:32:35;;;;;;;8.25;2.88;;;13.70;87.80;;;;;;5034203;28;20029;-47
2023/06/28 00:35:03;;;;;;;8.25;3.75;;;13.60;87.90;;;;;;5034205;28;20026;-46
2023/06/28 00:37:33;;;;;;;5.88;3.22;;;13.70;87.90;;;;;;5034104;28;20510;-46
2023/06/28 00:40:00;;;;;;;8.35;3.88;;;13.70;87.90;;;;;;5034150;28;20037;-46
2023/06/28 00:42:28;;;;;;;10.65;5.70;;;13.60;87.70;;;;;;5033891;28;20439;-47
2023/06/28 00:44:53;;;;;;;7.60;3.10;;;13.60;87.80;;;;;;5033719;28;20026;-47
2023/06/28 00:47:21;;;;;;;9.48;3.63;;;13.60;87.80;;;;;;5033918;28;20026;-45
2023/06/28 00:49:53;;;;;;;6.70;3.13;;;13.60;87.90;;;;;;5033572;28;20073;-47
2023/06/28 00:52:20;;;;;;;8.18;3.55;;;13.50;87.90;;;;;;5032367;28;20037;-47
2023/06/28 00:54:46;;;;;;;9.82;3.83;;;13.60;87.90;;;;;;5015855;28;20033;-46
2023/06/28 00:57:16;;;;;;;7.78;3.45;;;13.60;88.00;;;;;;5033391;28;20057;-45
2023/06/28 00:59:43;;;;;;;;;;;13.50;88.00;;;;;;5033863;28;20026;-48
2023/06/28 01:02:10;;;;;;;7.32;3.65;;;13.50;88.10;;;;;;5032963;28;20359;-46
2023/06/28 01:04:40;;;;;;;7.95;3.58;;;13.50;88.20;;;;;;5033089;28;20459;-46
2023/06/28 01:07:10;;;;;;;8.30;3.22;;;13.50;88.30;;;;;;5031951;28;20029;-46
2023/06/28 01:09:41;;;;;;;5.75;3.55;;;13.50;88.30;;;;;;5015238;28;20360;-45
2023/06/28 01:12:10;;;;;;;6.95;3.80;;;13.50;88.40;;;;;;5038030;28;20076;-48
2023/06/28 01:14:38;;;;;;;7.20;3.92;;;13.50;88.50;;;;;;5053607;28;20378;-47
2023/06/28 01:17:07;;;;;;;10.80;4.10;;;13.50;88.50;;;;;;5053380;28;20103;-46
2023/06/28 01:19:32;;;;;;;7.35;3.55;;;13.40;88.50;;;;;;5044036;28;20398;-46
2023/06/28 01:22:05;;;;;;;6.53;3.85;;;13.40;88.50;;;;;;5033338;28;20029;-46
2023/06/28 01:24:35;;;;;;;6.45;3.47;;;13.50;88.60;;;;;;5032350;28;20088;-45
2023/06/28 01:27:06;;;;;;;8.30;3.42;;;13.50;88.60;;;;;;5033211;28;20022;-45
2023/06/28 01:29:33;;;;;;;8.82;4.75;;;13.40;88.50;;;;;;5015523;28;20084;-45
2023/06/28 01:32:07;;;;;;;8.43;3.53;;;13.40;88.70;;;;;;5032449;28;20092;-45
2023/06/28 01:34:34;;;;;;;8.15;3.83;;;13.40;88.70;;;;;;5032107;28;20367;-45
2023/06/28 01:37:06;;;;;;;6.03;3.53;;;13.40;88.60;;;;;;5033240;28;20022;-45
2023/06/28 01:39:33;;;;;;;7.95;3.65;;;13.40;88.60;;;;;;5052996;28;20029;-45
2023/06/28 01:42:00;;;;;;;7.70;3.60;;;13.40;88.60;;;;;;5018735;28;20025;-44
2023/06/28 01:44:27;;;;;;;8.43;3.75;;;13.40;88.60;;;;;;5052374;28;20060;-45
2023/06/28 01:46:54;;;;;;;9.25;4.30;;;13.40;88.80;;;;;;5035017;28;20033;-45
2023/06/28 01:49:25;;;;;;;5.47;3.30;;;13.40;88.80;;;;;;5053089;28;20029;-45
2023/06/28 01:51:54;;;;;;;8.35;4.47;;;13.40;88.80;;;;;;5053306;28;20032;-45
2023/06/28 01:54:21;;;;;;;8.65;4.32;;;13.40;88.80;;;;;;5052693;28;20354;-45
2023/06/28 01:56:48;;;;;;;10.60;4.55;;;13.40;88.90;;;;;;5035327;28;20539;-45
2023/06/28 01:59:16;;;;;;;12.95;4.47;;;13.40;88.80;;;;;;5052941;28;20104;-44
2023/06/28 02:01:44;;;;;;;8.35;4.45;;;13.40;88.90;;;;;;5052764;28;20039;-45
2023/06/28 02:04:12;;;;;;;10.13;4.32;;;13.40;88.90;;;;;;5052480;28;20028;-45
2023/06/28 02:06:44;;;;;;;7.57;4.32;;;13.40;89.10;;;;;;5052707;28;20025;-44
2023/06/28 02:09:12;;;;;;;6.57;3.92;;;13.40;89.10;;;;;;5052953;28;20076;-45
2023/06/28 02:11:38;;;;;;;10.57;4.78;;;13.40;89.10;;;;;;5052423;28;20036;-44
2023/06/28 02:14:07;;;;;;;6.78;4.22;;;13.40;89.10;;;;;;5052451;28;20029;-46
2023/06/28 02:16:35;;;;;;;8.27;4.93;;;13.40;89.20;;;;;;5052509;28;20021;-44
2023/06/28 02:19:04;;;;;;;13.40;4.93;;;13.40;89.30;;;;;;5052918;28;20033;-46
2023/06/28 02:21:31;;;;;;;11.75;4.70;;;13.30;89.10;;;;;;5052440;28;20718;-45
2023/06/28 02:23:58;;;;;;;11.80;4.88;;;13.30;89.40;;;;;;5052718;28;20029;-44
2023/06/28 02:26:23;;;;;;;15.68;5.38;;;13.40;89.40;;;;;;5052590;28;20118;-46
2023/06/28 02:28:49;;;;;;;9.85;4.90;;;13.30;89.40;;;;;;5051491;28;20079;-45
2023/06/28 02:31:20;;;;;;;9.82;4.85;;;13.40;89.50;;;;;;5052654;28;20029;-45
2023/06/28 02:33:46;;;;;;;8.15;5.53;;;13.40;89.40;;;;;;5051451;28;20025;-44
2023/06/28 02:36:12;;;;;;;8.57;4.50;;;13.40;89.50;;;;;;5052441;28;20021;-44
2023/06/28 02:38:41;;;;;;;11.63;5.43;;;13.30;89.60;;;;;;5051750;28;20045;-44
2023/06/28 02:41:08;;;;;;;13.13;5.95;;;13.30;89.50;;;;;;5034873;28;20033;-44
2023/06/28 02:43:34;;;;;;;9.90;5.70;;;13.40;89.70;;;;;;5052498;28;20514;-46
2023/06/28 02:46:02;;;;;;;9.27;6.28;;;13.30;89.50;;;;;;5051432;28;20083;-44
2023/06/28 02:48:31;;;;;;;8.05;5.68;;;13.30;89.80;;;;;;5052743;28;20064;-44
2023/06/28 02:50:58;;;;;;;11.82;5.60;;;13.40;89.90;;;;;;5055539;28;20072;-44
2023/06/28 02:53:26;;;;;;;8.05;5.05;;;13.40;90.00;;;;;;5055109;28;20024;-44
2023/06/28 02:55:54;;;;;;;10.98;4.78;;;13.40;90.00;;;;;;5054952;28;20049;-44
2023/06/28 02:58:22;;;;;;;9.65;5.57;;;13.50;90.10;;;;;;5038831;28;20028;-45
2023/06/28 03:00:50;;;;;;;8.07;5.78;;;13.50;90.20;;;;;;5056145;28;20029;-45
2023/06/28 03:03:18;;;;;;;8.23;5.53;;;13.60;90.20;;;;;;5055027;28;20041;-44
2023/06/28 03:05:47;;;;;;;8.60;5.55;;;13.60;90.30;;;;;;5056059;28;20099;-45
2023/06/28 03:08:12;;;;;;;9.82;5.85;;;13.70;90.30;;;;;;5055955;28;20087;-46
2023/06/28 03:10:50;;;;;;;10.73;6.45;;;13.60;90.20;;;;;;5054954;28;20041;-43
2023/06/28 03:13:18;;;;;;;9.80;5.82;;;13.60;90.10;;;;;;5055392;28;20044;-45
2023/06/28 03:15:48;;;;;;;11.05;6.25;;;13.70;90.10;;;;;;5055787;28;20025;-44
2023/06/28 03:18:16;;;;;;;9.35;7.00;;;13.70;90.20;;;;;;5055593;28;20029;-45
2023/06/28 03:20:44;;;;;;;11.80;6.53;;;13.70;90.30;;;;;;5054819;28;20048;-45
2023/06/28 03:23:13;;;;;;;12.98;7.53;;;13.80;90.30;;;;;;5055594;28;20031;-46
2023/06/28 03:25:40;;;;;;;9.85;6.70;;;13.80;90.30;;;;;;5055667;28;20028;-46
2023/06/28 03:28:10;;;;;;;12.27;5.97;;;13.80;90.30;;;;;;5055420;28;20136;-46
2023/06/28 03:30:37;;;;;;;;;;;13.80;90.20;;;;;;5055963;28;20453;-45
2023/06/28 03:33:04;;;;;;;13.10;6.80;;;13.90;90.30;;;;;;5055415;28;19909;-44
2023/06/28 03:35:30;;;;;;;11.65;7.43;;;13.90;90.20;;;;;;5055328;28;20087;-46
2023/06/28 03:37:57;;;;;;;13.10;7.18;;;13.90;90.30;;;;;;5055396;28;20021;-45
2023/06/28 03:40:30;;;;;;;10.40;7.05;;;13.90;90.30;;;;;;5054262;28;20605;-44
2023/06/28 03:43:00;;;;;;;10.85;6.35;;;13.90;90.30;;;;;;5055360;28;20028;-44
2023/06/28 03:45:29;;;;;;;13.13;7.05;;;14.00;90.30;;;;;;5054233;28;20021;-45
2023/06/28 03:47:56;;;;;;;14.25;6.63;;;14.10;90.40;;;;;;5054987;28;20120;-46
2023/06/28 03:50:26;;;;;;;13.10;6.85;;;14.10;90.40;;;;;;5055001;28;20040;-47
2023/06/28 03:52:52;;;;;;;12.98;6.72;;;14.20;90.30;;;;;;5055090;28;20427;-44
2023/06/28 03:55:19;;;;;;;14.25;7.55;;;14.30;90.20;;;;;;5053806;28;20036;-44
2023/06/28 03:57:46;;;;;;;14.02;6.88;;;14.30;90.20;;;;;;5054887;28;20151;-45
2023/06/28 04:00:15;;;;;;;11.57;6.60;;;14.30;90.10;;;;;;5054978;28;20028;-44
2023/06/28 04:02:41;;;;;;;15.07;7.03;;;14.30;90.20;;;;;;5053133;28;20029;-45
2023/06/28 04:05:10;;;;;;;16.23;7.28;;;14.40;90.20;;;;;;5054701;28;20036;-44
2023/06/28 04:07:39;;;;;;;12.23;7.13;;;14.40;90.20;;;;;;5053594;28;20083;-45
2023/06/28 04:10:06;;;;;;;13.50;7.00;;;14.50;90.10;;;;;;5054768;28;20103;-44
2023/06/28 04:12:33;;;;;;;12.25;6.32;;;14.50;90.00;;;;;;5046310;28;20057;-45
2023/06/28 04:15:01;;;;;;;9.25;6.55;;;14.60;90.20;;;;;;5034686;28;20053;-47
2023/06/28 04:17:27;;;;;;;15.57;6.85;;;14.60;90.20;;;;;;5034765;28;20025;-45
2023/06/28 04:19:54;;;;;;;13.95;7.78;;;14.70;90.20;;;;;;5034774;28;20703;-44
2023/06/28 04:22:19;;;;;;;15.43;8.43;;;14.70;90.10;;;;;;5034368;28;20400;-46
2023/06/28 04:24:45;;;;;;;13.18;7.90;;;14.80;90.40;;;;;;5034142;28;20029;-44
2023/06/28 04:27:11;;;;;;;14.48;7.53;;;14.90;90.50;;;;;;5034071;28;20029;-44
2023/06/28 04:29:38;;;;;;;11.98;7.35;;;14.90;90.50;;;;;;5033107;28;20034;-45
2023/06/28 04:32:22;;;;;;;11.75;6.97;;;15.00;90.60;;;;;;5032792;28;20053;-45
2023/06/28 04:34:56;;;;;;;11.88;6.95;;;15.10;90.60;;;;;;5034246;28;20025;-45
2023/06/28 04:37:27;;;;;;;18.13;8.25;;;15.30;90.60;;;;;;5033018;28;20344;-45
2023/06/28 04:39:55;;;;;;;13.00;6.05;;;15.40;90.40;;;;;;5033356;28;20420;-46
2023/06/28 04:42:21;;;;;;;11.80;7.43;;;15.60;90.40;;;;;;5033983;28;20044;-45
2023/06/28 04:44:49;;;;;;;12.23;7.32;;;15.70;90.00;;;;;;5033193;28;20100;-45
2023/06/28 04:47:18;;;;;;;15.05;6.15;;;15.80;89.90;;;;;;5034087;28;20040;-46
2023/06/28 04:49:50;;;;;;;12.07;6.22;;;15.90;90.00;;;;;;5034322;28;20029;-46
2023/06/28 04:52:19;;;;;;;14.70;6.75;;;16.00;89.70;;;;;;5033050;28;20021;-47
2023/06/28 04:54:48;;;;;;;11.38;7.47;;;16.10;89.50;;;;;;5033314;28;20041;-45
2023/06/28 04:57:20;;;;;;;11.18;6.05;;;16.10;89.20;;;;;;5033874;28;20029;-47
2023/06/28 04:59:48;;;;;;;14.95;6.53;;;16.10;88.90;;;;;;5034097;28;20044;-47
2023/06/28 05:02:17;;;;;;;11.43;4.97;;;16.20;88.90;;;;;;5016238;28;20041;-47
2023/06/28 05:04:46;;;;;;;17.13;5.60;;;16.20;88.60;;;;;;5016479;28;20036;-46
2023/06/28 05:07:12;;;;;;;11.52;6.13;;;16.30;88.30;;;;;;5033329;28;20064;-48
2023/06/28 05:09:38;;;;;;;9.60;4.80;;;16.40;88.50;;;;;;5033708;28;20041;-46
2023/06/28 05:12:07;;;;;;;10.75;5.68;;;16.40;88.20;;;;;;5033411;28;20463;-46
2023/06/28 05:14:35;;;;;;;14.80;6.07;;;16.40;88.20;;;;;;5015915;28;20029;-47
2023/06/28 05:17:05;;;;;;;10.68;5.28;;;16.50;87.70;;;;;;5016003;28;20104;-47
2023/06/28 05:19:35;;;;;;;12.32;5.07;;;16.60;87.70;;;;;;5033661;28;20435;-48
2023/06/28 05:22:05;;;;;;;10.80;4.97;;;16.60;87.00;;;;;;5032415;28;20033;-47
2023/06/28 05:24:31;;;;;;;;;;;16.60;86.60;;;;;;5033839;28;20436;-49
2023/06/28 05:26:58;;;;;;;7.43;3.78;;;16.60;86.50;;;;;;5033518;28;20007;-47
2023/06/28 05:29:23;;;;;;;8.43;5.05;;;16.60;86.80;;;;;;5033423;28;20029;-47
2023/06/28 05:31:50;;;;;;;10.30;4.45;;;16.70;86.40;;;;;;5032506;28;20492;-48
2023/06/28 05:34:17;;;;;;;12.32;5.03;;;16.70;86.00;;;;;;5033026;28;20026;-47
2023/06/28 05:36:48;;;;;;;10.30;5.20;;;16.70;86.20;;;;;;5025281;28;20033;-49
2023/06/28 05:39:14;;;;;;;7.90;4.18;;;16.90;85.90;;;;;;5033207;28;20033;-51
2023/06/28 05:41:41;;;;;;;15.68;5.47;;;16.90;86.00;;;;;;5032996;28;20028;-52
2023/06/28 05:44:08;;;;;;;8.38;4.00;;;16.90;85.40;;;;;;5033193;28;20121;-48
2023/06/28 05:46:35;;;;;;;10.02;5.60;;;17.10;85.70;;;;;;5033474;28;20499;-48
2023/06/28 05:49:08;;;;;;;8.82;4.18;;;17.20;85.60;;;;;;5033099;28;20040;-48
2023/06/28 05:51:35;;;;;;;11.60;4.30;;;17.50;85.00;;;;;;5015747;28;20030;-52
2023/06/28 05:54:03;;;;;;;12.48;4.28;;;17.60;84.40;;;;;;5032860;28;20022;-49
2023/06/28 05:56:29;;;;;;;11.52;4.10;;;17.70;82.60;;;;;;5015626;28;20100;-48
2023/06/28 05:58:57;;;;;;;5.68;3.55;;;17.80;82.80;;;;;;5031996;28;20508;-52
2023/06/28 06:01:24;;;;;;;9.10;3.10;;;17.90;82.70;;;;;;5032039;28;20100;-49
2023/06/28 06:03:51;;;;;;;6.15;2.55;;;17.80;80.60;;;;;;5032872;28;20479;-51
2023/06/28 06:06:20;;;;;;;7.25;2.90;;;17.90;80.90;;;;;;5032783;28;20061;-50
2023/06/28 06:08:46;;;;;;;5.82;2.70;;;18.10;79.60;;;;;;5032075;28;20116;-50
2023/06/28 06:11:12;;;;;;;7.05;2.83;;;18.20;79.40;;;;;;5032819;28;20112;-52
2023/06/28 06:13:39;;;;;;;10.63;3.40;;;18.30;79.60;;;;;;5049487;28;20038;-54
2023/06/28 06:16:05;;;;;;;8.35;2.92;;;18.30;79.00;;;;;;5052637;28;20022;-53
2023/06/28 06:18:36;;;;;;;7.07;2.67;;;18.40;79.30;;;;;;5051625;28;20041;-51
2023/06/28 06:21:04;;;;;;;9.95;3.25;;;18.40;78.90;;;;;;5052582;28;20485;-54
2023/06/28 06:23:31;;;;;;;6.28;2.75;;;18.50;79.50;;;;;;5052560;28;20385;-51
2023/06/28 06:25:58;;;;;;;8.30;3.25;;;18.40;79.50;;;;;;5055100;28;20064;-49
2023/06/28 06:28:25;;;;;;;7.15;2.70;;;18.50;78.50;;;;;;5055273;28;20363;-49
2023/06/28 06:30:52;;;;;;;6.13;2.92;;;18.50;79.20;;;;;;5055219;28;20112;-51
2023/06/28 06:33:18;;;;;;;10.27;3.33;;;18.90;78.70;;;;;;5055635;28;20044;-51
2023/06/28 06:35:45;;;;;;;9.20;2.97;;;19.10;78.10;;;;;;5055756;28;20025;-51
2023/06/28 06:38:13;;;;;;;11.63;3.28;;;19.30;76.50;;;;;;5055674;28;20017;-51
2023/06/28 06:40:41;;;;;;;9.43;2.20;;;19.30;76.20;;;;;;5055730;28;20032;-51
2023/06/28 06:43:09;;;;;;;4.03;2.08;;;19.30;76.10;;;;;;5056083;28;20103;-52
2023/06/28 06:45:36;;;;;;;5.68;2.15;;;19.50;76.00;;;;;;5055476;28;20032;-51
2023/06/28 06:48:04;;;;;;;7.82;2.20;;;19.50;74.60;;;;;;5055472;28;20032;-54
2023/06/28 06:50:31;;;;;;;6.47;2.42;;;19.70;73.30;;;;;;5055678;28;20025;-51
2023/06/28 06:52:59;;;;;;;6.88;2.35;;;19.90;72.20;;;;;;5055587;28;20410;-49
2023/06/28 06:55:24;;;;;;;8.57;2.72;;;20.20;72.10;;;;;;5038482;28;20036;-50
2023/06/28 06:57:53;;;;;;;7.72;2.42;;;20.10;71.10;;;;;;5054675;28;20036;-53
2023/06/28 07:00:20;;;;;;;8.02;2.80;;;20.00;72.80;;;;;;5054456;28;20021;-57
2023/06/28 07:02:48;;;;;;;5.57;2.22;;;19.90;71.30;;;;;;5054882;28;20370;-51
2023/06/28 07:05:15;;;;;;;8.50;2.42;;;19.70;72.80;;;;;;5056139;28;20044;-53
2023/06/28 07:07:42;;;;;;;10.75;2.83;;;19.70;73.10;;;;;;5055950;28;20071;-54
2023/06/28 07:10:10;;;;;;;8.48;2.45;;;19.80;72.30;;;;;;5055609;28;20029;-55
2023/06/28 07:12:37;;;;;;;4.20;1.90;;;19.50;73.00;;;;;;5046914;28;20065;-49
2023/06/28 07:15:04;;;;;;;9.65;3.05;;;19.40;73.50;;;;;;5034824;28;20045;-49
2023/06/28 07:17:32;;;;;;;4.60;2.08;;;19.60;74.10;;;;;;5018135;28;20025;-53
2023/06/28 07:19:58;;;;;;;5.57;1.80;;;19.60;73.20;;;;;;5035656;28;20107;-53
2023/06/28 07:22:25;;;;;;;4.63;2.00;;;19.70;73.00;;;;;;5035592;28;20065;-52
2023/06/28 07:24:52;;;;;;;6.05;2.40;;;19.60;72.00;;;;;;5034719;28;20037;-55
2023/06/28 07:27:19;;;;;;;6.35;2.20;;;19.40;72.30;;;;;;5035824;28;20029;-50
2023/06/28 07:29:46;;;;;;;8.80;2.97;;;19.20;73.60;;;;;;5035582;28;20065;-54
2023/06/28 07:32:14;;;;;;;4.85;2.03;;;19.30;72.80;;;;;;5035274;28;20104;-52
2023/06/28 07:34:43;;;;;;;5.95;2.40;;;19.40;72.10;;;;;;5035422;28;20120;-52
2023/06/28 07:37:12;;;;;;;5.18;1.90;;;19.40;72.70;;;;;;5034989;28;20108;-51
2023/06/28 07:39:39;;;;;;;;;;;19.50;72.40;;;;;;5035811;28;20031;-53
2023/06/28 07:42:06;;;;;;;4.13;1.55;;;19.80;72.20;;;;;;5035426;28;20008;-51
2023/06/28 07:44:34;;;;;;;5.63;1.98;;;20.00;71.70;;;;;;5035236;28;20057;-55
2023/06/28 07:47:01;;;;;;;4.68;1.90;;;20.10;69.40;;;;;;5035273;28;20088;-54
2023/06/28 07:49:28;;;;;;;7.60;2.50;;;19.90;69.50;;;;;;5035508;28;20061;-53
2023/06/28 07:51:58;;;;;;;7.50;4.13;;;19.90;69.20;;;;;;5035076;28;20336;-54
2023/06/28 07:54:25;;;;;;;6.68;1.90;;;19.80;69.60;;;;;;5035031;28;20022;-54
2023/06/28 07:56:53;;;;;;;4.35;1.77;;;20.10;70.00;;;;;;5035011;28;20029;-56
2023/06/28 07:59:20;;;;;;;5.57;1.90;;;20.10;69.70;;;;;;5034970;28;20028;-53
2023/06/28 08:01:49;;;;;;;3.85;1.35;;;20.20;68.60;;;;;;5034718;28;20025;-56
2023/06/28 08:04:20;;;;;;;5.68;1.65;;;20.20;67.20;;;;;;5034938;28;20092;-55
2023/06/28 08:06:46;;;;;;;4.57;1.77;;;20.00;68.30;;;;;;5035034;28;20084;-56
2023/06/28 08:09:14;;;;;;;3.45;1.27;;;19.90;67.10;;;;;;5034723;28;20036;-55
2023/06/28 08:11:43;;;;;;;6.32;1.52;;;19.80;66.80;;;;;;5034735;28;20065;-52
2023/06/28 08:14:11;;;;;;;5.80;1.42;;;19.60;68.60;;;;;;5032512;28;20029;-53
2023/06/28 08:16:40;;;;;;;3.38;1.30;;;19.80;69.00;;;;;;5037077;28;20112;-52
2023/06/28 08:19:06;;;;;;;7.80;2.70;;;20.10;68.30;;;;;;5036679;28;20571;-53
2023/06/28 08:21:33;;;;;;;7.15;1.77;;;19.90;67.50;;;;;;5054204;28;20033;-55
2023/06/28 08:24:00;;;;;;;3.00;1.33;;;19.80;68.00;;;;;;5054428;28;20059;-52
2023/06/28 08:26:26;;;;;;;4.78;1.70;;;19.90;68.40;;;;;;5054405;28;20035;-50
2023/06/28 08:28:55;;;;;;;4.07;2.03;;;20.10;67.70;;;;;;5054753;28;20039;-53
2023/06/28 08:31:20;;;;;;;4.50;1.80;;;20.20;67.00;;;;;;5054202;28;20040;-56
2023/06/28 08:33:47;;;;;;;5.25;2.00;;;20.00;67.30;;;;;;5054155;28;20045;-53
2023/06/28 08:36:14;;;;;;;4.10;1.73;;;20.10;68.00;;;;;;5054316;28;20025;-56
2023/06/28 08:38:44;;;;;;;4.57;1.83;;;20.00;68.20;;;;;;5053054;28;20423;-53
2023/06/28 08:41:11;;;;;;;5.25;1.80;;;20.20;67.30;;;;;;5054156;28;20032;-51
2023/06/28 08:43:37;;;;;;;4.10;1.70;;;20.50;67.50;;;;;;5054018;28;20358;-54
2023/06/28 08:46:06;;;;;;;6.30;2.30;;;20.60;67.80;;;;;;5053517;28;20351;-50
2023/06/28 08:48:33;;;;;;;3.03;1.70;;;20.60;67.10;;;;;;5053672;28;20553;-53
2023/06/28 08:51:01;;;;;;;5.18;1.85;;;20.80;68.10;;;;;;5053871;28;20369;-54
2023/06/28 08:53:29;;;;;;;6.20;2.38;;;21.10;67.00;;;;;;5052997;28;20116;-57
2023/06/28 08:55:57;;;;;;;4.22;2.20;;;21.40;66.10;;;;;;5051956;28;20033;-54
2023/06/28 08:58:25;;;;;;;4.80;2.13;;;21.40;65.30;;;;;;5052949;28;20029;-56
2023/06/28 09:00:52;;;;;;;6.13;2.28;;;21.80;64.90;;;;;;5052935;28;20783;-55
2023/06/28 09:03:20;;;;;;;8.80;2.55;;;21.90;63.80;;;;;;5053794;28;20047;-52
2023/06/28 09:05:47;;;;;;;4.45;1.90;;;21.80;63.20;;;;;;5052760;28;20033;-51
2023/06/28 09:08:20;;;;;;;5.47;1.83;;;21.50;64.70;;;;;;5053747;28;20048;-54
2023/06/28 09:10:47;;;;;;;6.03;1.98;;;21.70;64.50;;;;;;5053715;28;20028;-52
2023/06/28 09:13:19;;;;;;;5.05;2.00;;;21.60;64.60;;;;;;5039940;28;20053;-53
2023/06/28 09:15:48;;;;;;;4.18;2.30;;;21.30;65.40;;;;;;5033535;28;20030;-56
2023/06/28 09:18:16;;;;;;;4.80;2.60;;;21.40;64.90;;;;;;5015995;28;20033;-54
2023/06/28 09:20:52;;;;;;;4.45;1.98;;;21.40;65.20;;;;;;5033605;28;20091;-53
2023/06/28 09:23:40;;;;;;;3.88;2.13;;;21.60;64.10;;;;;;5016627;28;20044;-54
2023/06/28 09:26:10;;;;;;;3.15;1.67;;;22.10;64.00;;;;;;5033098;28;20481;-54
2023/06/28 09:28:36;;;;;;;7.07;2.63;;;22.00;62.90;;;;;;5033068;28;20083;-55
2023/06/28 09:31:05;;;;;;;5.20;2.25;;;22.00;63.50;;;;;;5032466;28;20033;-54
2023/06/28 09:33:33;;;;;;;6.65;2.30;;;22.10;64.40;;;;;;5032551;28;20057;-55
2023/06/28 09:36:05;;;;;;;6.63;2.78;;;22.20;64.30;;;;;;5033649;28;20350;-53
2023/06/28 09:38:33;;;;;;;4.07;2.05;;;22.40;63.20;;;;;;5016143;28;20036;-53
2023/06/28 09:41:01;;;;;;;6.78;3.20;;;22.20;62.90;;;;;;5032333;28;20021;-51
2023/06/28 09:43:34;;;;;;;4.18;2.22;;;22.00;63.00;;;;;;5015576;28;20052;-55
2023/06/28 09:46:19;;;;;;;4.10;2.17;;;21.90;63.80;;;;;;5015555;28;20034;-53
2023/06/28 09:48:49;;;;;;;7.03;2.58;;;22.10;63.80;;;;;;5032855;28;20017;-52
2023/06/28 09:51:27;;;;;;;4.65;2.58;;;22.10;63.40;;;;;;5014209;28;20072;-50
2023/06/28 09:53:58;;;;;;;7.50;3.13;;;22.10;64.10;;;;;;5032707;28;20065;-55
2023/06/28 09:56:38;;;;;;;5.85;2.78;;;22.00;64.60;;;;;;5032914;28;20019;-50
2023/06/28 09:59:08;;;;;;;5.97;2.35;;;22.20;65.40;;;;;;5032881;28;20111;-55
2023/06/28 10:01:44;;;;;;;;;;;22.20;63.70;;;;;;5031937;28;20030;-51
2023/06/28 10:04:12;;;;;;;7.53;3.08;;;21.90;63.80;;;;;;5032785;28;19912;-55
2023/06/28 10:06:43;;;;;;;4.05;2.10;;;21.50;65.40;;;;;;5031360;28;20034;-52
2023/06/28 10:09:17;;;;;;;6.63;3.20;;;21.80;66.50;;;;;;5031718;28;20363;-56
2023/06/28 10:11:50;;;;;;;4.93;3.00;;;22.00;65.90;;;;;;5031205;28;20359;-53
2023/06/28 10:14:18;;;;;;;7.20;3.67;;;22.10;65.60;;;;;;5028877;28;20044;-57
2023/06/28 10:16:45;;;;;;;9.60;3.43;;;22.00;64.50;;;;;;5031341;28;20036;-55
2023/06/28 10:19:11;;;;;;;4.80;2.60;;;21.70;65.40;;;;;;5032449;28;20036;-52
2023/06/28 10:21:39;;;;;;;5.20;2.58;;;21.50;66.80;;;;;;5031280;28;20109;-55
2023/06/28 10:24:09;;;;;;;8.25;4.15;;;21.40;65.90;;;;;;5031707;28;20033;-55
2023/06/28 10:26:46;;;;;;;5.22;2.67;;;21.10;67.20;;;;;;5032428;28;20033;-53
2023/06/28 10:29:13;;;;;;;4.30;2.83;;;21.30;67.60;;;;;;5032615;28;20033;-51
2023/06/28 10:31:57;;;;;;;6.85;2.88;;;21.20;68.00;;;;;;5015186;28;20497;-54
2023/06/28 10:34:25;;;;;;;4.88;2.75;;;21.40;67.80;;;;;;5032760;28;20040;-53
2023/06/28 10:36:56;;;;;;;6.35;3.40;;;21.50;67.80;;;;;;5032566;28;20399;-52
2023/06/28 10:39:26;;;;;;;5.30;2.95;;;21.90;67.20;;;;;;5032935;28;20645;-53
2023/06/28 10:41:56;;;;;;;5.78;2.75;;;21.70;66.40;;;;;;5032431;28;20025;-54
2023/06/28 10:44:24;;;;;;;4.65;2.10;;;21.60;66.70;;;;;;5031748;28;20382;-53
2023/06/28 10:47:12;;;;;;;5.53;2.90;;;21.40;67.10;;;;;;5014994;28;20069;-52
2023/06/28 10:49:43;;;;;;;3.78;2.00;;;21.30;68.30;;;;;;5032796;28;20030;-53
2023/06/28 10:52:18;;;;;;;5.93;2.50;;;21.30;67.60;;;;;;5032568;28;20033;-50
2023/06/28 10:54:45;;;;;;;5.60;3.35;;;21.20;67.90;;;;;;5032661;28;20038;-50
2023/06/28 10:57:17;;;;;;;7.38;2.50;;;21.00;68.50;;;;;;5032434;28;20018;-55
2023/06/28 10:59:49;;;;;;;7.13;3.00;;;20.90;69.00;;;;;;5032148;28;20057;-53
2023/06/28 11:02:16;;;;;;;5.72;2.80;;;21.00;69.30;;;;;;5031039;28;20037;-50
2023/06/28 11:04:55;;;;;;;7.25;3.05;;;20.90;68.90;;;;;;5031775;28;20455;-50
2023/06/28 11:07:27;;;;;;;8.68;3.55;;;20.90;69.80;;;;;;5031272;28;20343;-54
2023/06/28 11:10:16;;;;;;;5.70;3.28;;;21.10;69.10;;;;;;5032068;28;20100;-52
2023/06/28 11:12:47;;;;;;;5.80;2.40;;;21.10;68.90;;;;;;5038339;28;20061;-53
2023/06/28 11:15:28;;;;;;;6.25;3.13;;;21.20;68.70;;;;;;5055045;28;20033;-54
2023/06/28 11:18:07;;;;;;;6.63;3.50;;;21.30;68.50;;;;;;5055787;28;20037;-54
2023/06/28 11:20:58;;;;;;;6.82;2.78;;;21.70;69.00;;;;;;5055718;28;20028;-53
2023/06/28 11:23:29;;;;;;;5.35;2.60;;;21.60;67.80;;;;;;5055601;28;20380;-54
2023/06/28 11:26:02;;;;;;;6.38;3.00;;;21.70;67.50;;;;;;5055885;28;20033;-55
2023/06/28 11:28:34;;;;;;;7.15;3.28;;;21.60;66.90;;;;;;5054690;28;20029;-53
2023/06/28 11:31:38;;;;;;;6.22;2.90;;;21.90;66.70;;;;;;5051797;28;20659;-54
2023/06/28 11:34:09;;;;;;;5.13;3.05;;;22.10;66.70;;;;;;5055552;28;20029;-53
2023/06/28 11:36:35;;;;;;;9.02;3.60;;;21.90;66.10;;;;;;5055383;28;20048;-56
2023/06/28 11:39:03;;;;;;;8.63;3.47;;;22.00;65.70;;;;;;5055406;28;20017;-53
2023/06/28 11:41:34;;;;;;;7.20;3.33;;;21.90;66.00;;;;;;5055475;28;20355;-53
2023/06/28 11:44:06;;;;;;;7.45;3.65;;;21.90;66.40;;;;;;5054264;28;20036;-53
2023/06/28 11:46:35;;;;;;;8.32;3.35;;;21.50;67.60;;;;;;5054891;28;20463;-54
2023/06/28 11:49:03;;;;;;;7.05;4.10;;;21.60;67.00;;;;;;5037308;28;20067;-54
2023/06/28 11:51:34;;;;;;;8.15;4.32;;;21.30;68.00;;;;;;5055317;28;20045;-55
2023/06/28 11:54:04;;;;;;;6.63;3.60;;;21.10;68.60;;;;;;5054972;28;20033;-50
2023/06/28 11:56:56;;;;;;;8.45;4.30;;;21.30;69.80;;;;;;5053999;28;20057;-52
2023/06/28 11:59:27;;;;;;;12.65;4.72;;;21.30;69.80;;;;;;5054934;28;20064;-56
2023/06/28 12:02:11;;;;;;;7.93;4.32;;;21.40;69.00;;;;;;5054352;28;20355;-52
2023/06/28 12:04:39;;;;;;;7.97;3.70;;;21.60;68.20;;;;;;5053929;28;20048;-53
2023/06/28 12:07:06;;;;;;;6.38;3.33;;;21.70;67.90;;;;;;5054811;28;20391;-53
2023/06/28 12:09:35;;;;;;;6.05;3.75;;;21.70;68.10;;;;;;5054713;28;20063;-53
2023/06/28 12:12:21;;;;;;;7.95;4.25;;;21.90;68.40;;;;;;5037131;28;20061;-53
2023/06/28 12:14:49;;;;;;;7.93;4.40;;;22.00;68.20;;;;;;5055090;28;20402;-53
2023/06/28 12:17:17;;;;;;;9.45;4.18;;;22.40;67.50;;;;;;5036435;28;20036;-54
2023/06/28 12:19:45;;;;;;;6.70;4.60;;;22.40;66.80;;;;;;5054445;28;20013;-52
2023/06/28 12:22:12;;;;;;;6.97;4.10;;;22.30;67.00;;;;;;5036094;28;20059;-52
2023/06/28 12:24:38;;;;;;;6.63;3.45;;;22.30;67.50;;;;;;5054534;28;20041;-57
2023/06/28 12:27:09;;;;;;;6.18;3.65;;;22.00;66.80;;;;;;5054632;28;20032;-51
2023/06/28 12:29:37;;;;;;;10.40;3.90;;;21.80;66.80;;;;;;5054186;28;20071;-54
2023/06/28 12:32:23;;;;;;;7.70;4.40;;;21.60;68.50;;;;;;5054271;28;20044;-52
2023/06/28 12:34:51;;;;;;;8.70;5.75;;;21.50;69.20;;;;;;5018865;28;20446;-52
2023/06/28 12:37:20;;;;;;;6.90;4.15;;;21.30;69.30;;;;;;5053645;28;20055;-51
2023/06/28 12:39:47;;;;;;;11.33;5.37;;;21.50;70.30;;;;;;5053294;28;20053;-51
2023/06/28 12:42:19;;;;;;;5.57;3.70;;;21.40;69.20;;;;;;5054073;28;20463;-50
2023/06/28 12:45:06;;;;;;;7.50;3.78;;;21.20;69.60;;;;;;5036703;28;20036;-50
2023/06/28 12:47:35;;;;;;;6.25;3.50;;;21.30;69.80;;;;;;5054148;28;20040;-52
2023/06/28 12:50:03;;;;;;;7.63;3.95;;;21.40;69.80;;;;;;5053960;28;20017;-54
2023/06/28 12:52:29;;;;;;;5.05;3.47;;;21.50;69.20;;;;;;5036434;28;20021;-52
2023/06/28 12:54:59;;;;;;;6.53;4.28;;;21.50;69.30;;;;;;5052982;28;20040;-53